sensor_id;sensor_type;location;lat;lon;timestamp;pressure;altitude;pressure_sealevel;temperature;humidity
7668;BME280;3876;42.204;24.686;2023-04-20T00:00:30;99005.16;;;13.01;100.00
7668;BME280;3876;42.204;24.686;2023-04-20T00:02:58;99001.09;;;12.96;100.00
7668;BME280;3876;42.204;24.686;2023-04-20T00:05:25;98998.63;;;12.94;100.00
7668;BME280;3876;42.204;24.686;2023-04-20T00:07:52;98995.22;;;12.94;100.00
7668;BME280;3876;42.204;24.686;2023-04-20T00:10:19;98989.44;;;12.89;100.00
7668;BME280;3876;42.204;24.686;2023-04-20T00:12:58;98991.25;;;12.87;100.00
7668;BME280;3876;42.204;24.686;2023-04-20T00:15:25;98996.38;;;12.87;100.00
7668;BME280;3876;42.204;24.686;2023-04-20T00:17:52;98988.75;;;12.85;100.00
7668;BME280;3876;42.204;24.686;2023-04-20T00:20:20;98989.72;;;12.83;100.00
7668;BME280;3876;42.204;24.686;2023-04-20T00:22:47;98973.75;;;12.76;100.00
7668;BME280;3876;42.204;24.686;2023-04-20T00:25:13;98987.34;;;12.78;100.00
7668;BME280;3876;42.204;24.686;2023-04-20T00:27:40;98981.38;;;12.78;100.00
7668;BME280;3876;42.204;24.686;2023-04-20T00:30:08;98977.41;;;12.71;100.00
7668;BME280;3876;42.204;24.686;2023-04-20T00:32:35;98977.56;;;12.68;100.00
7668;BME280;3876;42.204;24.686;2023-04-20T00:35:02;98982.13;;;12.61;100.00
7668;BME280;3876;42.204;24.686;2023-04-20T00:37:31;98975.69;;;12.52;100.00
7668;BME280;3876;42.204;24.686;2023-04-20T00:39:57;98982.00;;;12.45;100.00
7668;BME280;3876;42.204;24.686;2023-04-20T00:42:24;98975.44;;;12.38;100.00
7668;BME280;3876;42.204;24.686;2023-04-20T00:44:51;98980.25;;;12.27;100.00
7668;BME280;3876;42.204;24.686;2023-04-20T00:47:17;98976.97;;;12.24;100.00
7668;BME280;3876;42.204;24.686;2023-04-20T00:49:44;98978.97;;;12.17;100.00
7668;BME280;3876;42.204;24.686;2023-04-20T00:52:11;98979.84;;;12.16;100.00
7668;BME280;3876;42.204;24.686;2023-04-20T00:54:39;98970.25;;;12.01;100.00
7668;BME280;3876;42.204;24.686;2023-04-20T00:57:06;98984.75;;;12.02;100.00
7668;BME280;3876;42.204;24.686;2023-04-20T00:59:33;98970.56;;;11.93;100.00
7668;BME280;3876;42.204;24.686;2023-04-20T01:02:00;98974.50;;;11.82;100.00
7668;BME280;3876;42.204;24.686;2023-04-20T01:04:27;98968.84;;;11.74;100.00
7668;BME280;3876;42.204;24.686;2023-04-20T01:06:55;98962.25;;;11.67;100.00
7668;BME280;3876;42.204;24.686;2023-04-20T01:09:22;98971.00;;;11.63;100.00
7668;BME280;3876;42.204;24.686;2023-04-20T01:11:50;98970.19;;;11.60;100.00
7668;BME280;3876;42.204;24.686;2023-04-20T01:14:17;98970.16;;;11.62;100.00
7668;BME280;3876;42.204;24.686;2023-04-20T01:16:43;98965.06;;;11.60;100.00
7668;BME280;3876;42.204;24.686;2023-04-20T01:19:12;98969.44;;;11.58;100.00
7668;BME280;3876;42.204;24.686;2023-04-20T01:21:39;98956.41;;;11.43;100.00
7668;BME280;3876;42.204;24.686;2023-04-20T01:24:07;98953.00;;;11.42;100.00
7668;BME280;3876;42.204;24.686;2023-04-20T01:26:34;98961.34;;;11.47;100.00
7668;BME280;3876;42.204;24.686;2023-04-20T01:29:01;98967.38;;;11.46;100.00
7668;BME280;3876;42.204;24.686;2023-04-20T01:31:28;98963.25;;;11.42;100.00
7668;BME280;3876;42.204;24.686;2023-04-20T01:33:54;98963.50;;;11.36;100.00
7668;BME280;3876;42.204;24.686;2023-04-20T01:36:21;98932.03;;;11.11;100.00
7668;BME280;3876;42.204;24.686;2023-04-20T01:38:48;98967.59;;;11.20;100.00
7668;BME280;3876;42.204;24.686;2023-04-20T01:41:16;98959.22;;;11.15;100.00
7668;BME280;3876;42.204;24.686;2023-04-20T01:43:43;98921.00;;;10.87;100.00
7668;BME280;3876;42.204;24.686;2023-04-20T01:46:10;98954.47;;;11.06;100.00
7668;BME280;3876;42.204;24.686;2023-04-20T01:48:37;98966.28;;;11.10;100.00
7668;BME280;3876;42.204;24.686;2023-04-20T01:51:03;98936.91;;;10.95;100.00
7668;BME280;3876;42.204;24.686;2023-04-20T01:53:30;98958.69;;;11.07;100.00
7668;BME280;3876;42.204;24.686;2023-04-20T01:55:58;98968.16;;;11.05;100.00
7668;BME280;3876;42.204;24.686;2023-04-20T01:58:26;98968.16;;;11.05;100.00
7668;BME280;3876;42.204;24.686;2023-04-20T02:00:53;98957.03;;;11.06;100.00
7668;BME280;3876;42.204;24.686;2023-04-20T02:03:20;98960.72;;;10.99;100.00
7668;BME280;3876;42.204;24.686;2023-04-20T02:05:47;98955.81;;;10.93;100.00
7668;BME280;3876;42.204;24.686;2023-04-20T02:08:13;98957.44;;;10.95;100.00
7668;BME280;3876;42.204;24.686;2023-04-20T02:10:40;98952.25;;;10.97;100.00
7668;BME280;3876;42.204;24.686;2023-04-20T02:13:07;98948.25;;;10.90;100.00
7668;BME280;3876;42.204;24.686;2023-04-20T02:15:35;98953.63;;;10.84;100.00
7668;BME280;3876;42.204;24.686;2023-04-20T02:18:02;98947.72;;;10.82;100.00
7668;BME280;3876;42.204;24.686;2023-04-20T02:20:29;98955.41;;;10.82;100.00
7668;BME280;3876;42.204;24.686;2023-04-20T02:22:56;98946.94;;;10.80;100.00
7668;BME280;3876;42.204;24.686;2023-04-20T02:25:22;98957.19;;;10.80;100.00
7668;BME280;3876;42.204;24.686;2023-04-20T02:27:49;98962.31;;;10.80;100.00
7668;BME280;3876;42.204;24.686;2023-04-20T02:30:16;98954.59;;;10.81;100.00
7668;BME280;3876;42.204;24.686;2023-04-20T02:32:44;98956.31;;;10.81;100.00
7668;BME280;3876;42.204;24.686;2023-04-20T02:35:11;98965.69;;;10.82;100.00
7668;BME280;3876;42.204;24.686;2023-04-20T02:37:38;98958.75;;;10.84;100.00
7668;BME280;3876;42.204;24.686;2023-04-20T02:40:06;98969.00;;;10.84;100.00
7668;BME280;3876;42.204;24.686;2023-04-20T02:42:32;98963.88;;;10.84;100.00
7668;BME280;3876;42.204;24.686;2023-04-20T02:44:59;98963.88;;;10.84;100.00
7668;BME280;3876;42.204;24.686;2023-04-20T02:47:26;98947.06;;;10.77;100.00
7668;BME280;3876;42.204;24.686;2023-04-20T02:49:54;98963.88;;;10.84;100.00
7668;BME280;3876;42.204;24.686;2023-04-20T02:52:21;98971.69;;;10.81;100.00
7668;BME280;3876;42.204;24.686;2023-04-20T02:54:48;98978.41;;;10.83;100.00
7668;BME280;3876;42.204;24.686;2023-04-20T02:57:17;98974.78;;;10.89;100.00
7668;BME280;3876;42.204;24.686;2023-04-20T02:59:43;98971.28;;;10.91;100.00
7668;BME280;3876;42.204;24.686;2023-04-20T03:02:10;98968.75;;;10.90;100.00
7668;BME280;3876;42.204;24.686;2023-04-20T03:04:37;98971.34;;;10.90;100.00
7668;BME280;3876;42.204;24.686;2023-04-20T03:07:06;98973.66;;;10.96;100.00
7668;BME280;3876;42.204;24.686;2023-04-20T03:09:33;98976.06;;;11.00;100.00
7668;BME280;3876;42.204;24.686;2023-04-20T03:12:00;98973.28;;;11.05;100.00
7668;BME280;3876;42.204;24.686;2023-04-20T03:14:27;98976.69;;;11.05;100.00
7668;BME280;3876;42.204;24.686;2023-04-20T03:16:54;98970.63;;;11.08;100.00
7668;BME280;3876;42.204;24.686;2023-04-20T03:19:21;98969.13;;;11.02;100.00
7668;BME280;3876;42.204;24.686;2023-04-20T03:21:48;98976.91;;;11.01;100.00
7668;BME280;3876;42.204;24.686;2023-04-20T03:24:16;98964.84;;;11.03;100.00
7668;BME280;3876;42.204;24.686;2023-04-20T03:26:43;98962.16;;;11.06;100.00
7668;BME280;3876;42.204;24.686;2023-04-20T03:29:10;98967.28;;;11.06;100.00
7668;BME280;3876;42.204;24.686;2023-04-20T03:31:37;98965.50;;;11.08;100.00
7668;BME280;3876;42.204;24.686;2023-04-20T03:34:03;98960.38;;;11.08;100.00
7668;BME280;3876;42.204;24.686;2023-04-20T03:36:30;98964.59;;;11.09;100.00
7668;BME280;3876;42.204;24.686;2023-04-20T03:38:57;98964.47;;;11.12;100.00
7668;BME280;3876;42.204;24.686;2023-04-20T03:41:26;98966.91;;;11.15;100.00
7668;BME280;3876;42.204;24.686;2023-04-20T03:43:52;98965.03;;;11.20;100.00
7668;BME280;3876;42.204;24.686;2023-04-20T03:46:19;98962.34;;;11.23;100.00
7668;BME280;3876;42.204;24.686;2023-04-20T03:48:46;98969.81;;;11.28;100.00
7668;BME280;3876;42.204;24.686;2023-04-20T03:51:12;98965.41;;;11.31;100.00
7668;BME280;3876;42.204;24.686;2023-04-20T03:53:39;98966.44;;;11.27;100.00
7668;BME280;3876;42.204;24.686;2023-04-20T03:56:06;98951.66;;;11.12;100.00
7668;BME280;3876;42.204;24.686;2023-04-20T03:58:35;98966.53;;;11.04;100.00
7668;BME280;3876;42.204;24.686;2023-04-20T04:01:01;98969.25;;;10.99;100.00
7668;BME280;3876;42.204;24.686;2023-04-20T04:03:29;98972.13;;;10.92;100.00
7668;BME280;3876;42.204;24.686;2023-04-20T04:05:55;98977.94;;;10.95;100.00
7668;BME280;3876;42.204;24.686;2023-04-20T04:08:22;98969.59;;;10.90;100.00
7668;BME280;3876;42.204;24.686;2023-04-20T04:10:49;98974.44;;;10.98;100.00
7668;BME280;3876;42.204;24.686;2023-04-20T04:13:16;98978.66;;;10.99;100.00
7668;BME280;3876;42.204;24.686;2023-04-20T04:15:47;98981.91;;;11.04;100.00
7668;BME280;3876;42.204;24.686;2023-04-20T04:18:14;98988.69;;;11.05;100.00
7668;BME280;3876;42.204;24.686;2023-04-20T04:20:41;98984.22;;;11.10;100.00
7668;BME280;3876;42.204;24.686;2023-04-20T04:23:08;98989.41;;;11.08;100.00
7668;BME280;3876;42.204;24.686;2023-04-20T04:25:36;98983.28;;;11.13;100.00
7668;BME280;3876;42.204;24.686;2023-04-20T04:28:03;98995.25;;;11.12;100.00
7668;BME280;3876;42.204;24.686;2023-04-20T04:30:30;98981.31;;;11.19;100.00
7668;BME280;3876;42.204;24.686;2023-04-20T04:32:58;98984.28;;;11.30;100.00
7668;BME280;3876;42.204;24.686;2023-04-20T04:35:25;98980.22;;;11.46;100.00
7668;BME280;3876;42.204;24.686;2023-04-20T04:37:52;98978.69;;;11.63;100.00
7668;BME280;3876;42.204;24.686;2023-04-20T04:40:18;98982.19;;;11.82;100.00
7668;BME280;3876;42.204;24.686;2023-04-20T04:42:45;98969.72;;;11.93;100.00
7668;BME280;3876;42.204;24.686;2023-04-20T04:45:13;98993.38;;;12.21;100.00
7668;BME280;3876;42.204;24.686;2023-04-20T04:47:41;98986.25;;;12.46;100.00
7668;BME280;3876;42.204;24.686;2023-04-20T04:50:10;98994.72;;;12.67;100.00
7668;BME280;3876;42.204;24.686;2023-04-20T04:52:37;98991.78;;;12.93;100.00
7668;BME280;3876;42.204;24.686;2023-04-20T04:55:04;98992.88;;;13.25;100.00
7668;BME280;3876;42.204;24.686;2023-04-20T04:57:33;98989.59;;;13.40;100.00
7668;BME280;3876;42.204;24.686;2023-04-20T05:00:00;98992.34;;;13.54;100.00
7668;BME280;3876;42.204;24.686;2023-04-20T05:02:28;99000.38;;;13.65;100.00
7668;BME280;3876;42.204;24.686;2023-04-20T05:04:55;98997.34;;;13.75;100.00
7668;BME280;3876;42.204;24.686;2023-04-20T05:07:23;99000.09;;;13.89;100.00
7668;BME280;3876;42.204;24.686;2023-04-20T05:09:50;98997.63;;;14.03;100.00
7668;BME280;3876;42.204;24.686;2023-04-20T05:12:17;99003.69;;;14.19;100.00
7668;BME280;3876;42.204;24.686;2023-04-20T05:14:44;99000.63;;;14.28;100.00
7668;BME280;3876;42.204;24.686;2023-04-20T05:17:11;99006.56;;;14.30;100.00
7668;BME280;3876;42.204;24.686;2023-04-20T05:19:38;99005.34;;;14.20;100.00
7668;BME280;3876;42.204;24.686;2023-04-20T05:22:04;99002.47;;;14.09;100.00
7668;BME280;3876;42.204;24.686;2023-04-20T05:24:33;99003.09;;;13.97;100.00
7668;BME280;3876;42.204;24.686;2023-04-20T05:27:00;99007.34;;;13.98;100.00
7668;BME280;3876;42.204;24.686;2023-04-20T05:29:27;99005.19;;;14.06;100.00
7668;BME280;3876;42.204;24.686;2023-04-20T05:31:54;99003.56;;;14.05;100.00
7668;BME280;3876;42.204;24.686;2023-04-20T05:34:20;99012.03;;;14.07;100.00
7668;BME280;3876;42.204;24.686;2023-04-20T05:36:50;99012.63;;;14.12;100.00
7668;BME280;3876;42.204;24.686;2023-04-20T05:39:19;99009.16;;;14.13;100.00
7668;BME280;3876;42.204;24.686;2023-04-20T05:41:47;99002.31;;;14.12;99.89
7668;BME280;3876;42.204;24.686;2023-04-20T05:44:14;99016.28;;;14.08;98.84
7668;BME280;3876;42.204;24.686;2023-04-20T05:46:40;99013.78;;;14.06;97.59
7668;BME280;3876;42.204;24.686;2023-04-20T05:49:07;99018.25;;;14.03;98.79
7668;BME280;3876;42.204;24.686;2023-04-20T05:51:34;99016.44;;;14.05;100.00
7668;BME280;3876;42.204;24.686;2023-04-20T05:54:01;99017.78;;;14.12;98.81
7668;BME280;3876;42.204;24.686;2023-04-20T05:56:27;99015.97;;;14.31;100.00
7668;BME280;3876;42.204;24.686;2023-04-20T05:58:56;99023.13;;;14.59;99.56
7668;BME280;3876;42.204;24.686;2023-04-20T06:01:24;99018.84;;;14.91;98.73
7668;BME280;3876;42.204;24.686;2023-04-20T06:03:51;99020.09;;;15.15;97.42
7668;BME280;3876;42.204;24.686;2023-04-20T06:06:18;99021.31;;;15.39;94.27
7668;BME280;3876;42.204;24.686;2023-04-20T06:08:45;99030.00;;;15.54;93.73
7668;BME280;3876;42.204;24.686;2023-04-20T06:11:11;99031.66;;;15.55;92.39
7668;BME280;3876;42.204;24.686;2023-04-20T06:13:38;99024.81;;;15.69;93.38
7668;BME280;3876;42.204;24.686;2023-04-20T06:16:07;99022.59;;;15.77;91.78
7668;BME280;3876;42.204;24.686;2023-04-20T06:18:35;99035.16;;;15.84;91.82
7668;BME280;3876;42.204;24.686;2023-04-20T06:21:02;99026.19;;;16.05;91.80
7668;BME280;3876;42.204;24.686;2023-04-20T06:23:29;99037.13;;;16.24;90.45
7668;BME280;3876;42.204;24.686;2023-04-20T06:25:56;99033.44;;;16.42;90.98
7668;BME280;3876;42.204;24.686;2023-04-20T06:28:23;99037.97;;;16.53;90.09
7668;BME280;3876;42.204;24.686;2023-04-20T06:30:49;99038.66;;;16.56;89.46
7668;BME280;3876;42.204;24.686;2023-04-20T06:33:17;99025.34;;;16.62;90.82
7668;BME280;3876;42.204;24.686;2023-04-20T06:35:44;99035.38;;;16.95;91.31
7668;BME280;3876;42.204;24.686;2023-04-20T06:38:11;99030.78;;;17.27;90.92
7668;BME280;3876;42.204;24.686;2023-04-20T06:40:38;99031.66;;;17.40;86.16
7668;BME280;3876;42.204;24.686;2023-04-20T06:43:05;99031.63;;;17.27;85.60
7668;BME280;3876;42.204;24.686;2023-04-20T06:45:31;99029.91;;;17.14;86.40
7668;BME280;3876;42.204;24.686;2023-04-20T06:47:58;99031.19;;;17.07;86.26
7668;BME280;3876;42.204;24.686;2023-04-20T06:50:27;99033.06;;;17.05;85.38
7668;BME280;3876;42.204;24.686;2023-04-20T06:52:54;99035.78;;;16.89;85.63
7668;BME280;3876;42.204;24.686;2023-04-20T06:55:20;99031.25;;;16.93;85.11
7668;BME280;3876;42.204;24.686;2023-04-20T06:57:47;99027.06;;;16.90;86.76
7668;BME280;3876;42.204;24.686;2023-04-20T07:00:15;99032.31;;;17.03;86.75
7668;BME280;3876;42.204;24.686;2023-04-20T07:02:43;99032.00;;;17.21;86.17
7668;BME280;3876;42.204;24.686;2023-04-20T07:05:10;99026.44;;;17.27;87.29
7668;BME280;3876;42.204;24.686;2023-04-20T07:07:38;99025.00;;;17.36;84.62
7668;BME280;3876;42.204;24.686;2023-04-20T07:10:06;99037.28;;;17.47;84.49
7668;BME280;3876;42.204;24.686;2023-04-20T07:12:35;99029.59;;;17.59;85.30
7668;BME280;3876;42.204;24.686;2023-04-20T07:15:02;99037.88;;;17.64;84.23
7668;BME280;3876;42.204;24.686;2023-04-20T07:17:30;99042.22;;;17.91;83.19
7668;BME280;3876;42.204;24.686;2023-04-20T07:20:00;99038.22;;;18.12;85.24
7668;BME280;3876;42.204;24.686;2023-04-20T07:22:31;99037.47;;;18.22;82.96
7668;BME280;3876;42.204;24.686;2023-04-20T07:25:00;99020.69;;;18.03;81.06
7668;BME280;3876;42.204;24.686;2023-04-20T07:27:28;99032.06;;;18.13;79.51
7668;BME280;3876;42.204;24.686;2023-04-20T07:29:55;99030.09;;;18.04;80.29
7668;BME280;3876;42.204;24.686;2023-04-20T07:32:22;99030.41;;;17.87;80.22
7668;BME280;3876;42.204;24.686;2023-04-20T07:34:49;99039.75;;;18.02;82.27
7668;BME280;3876;42.204;24.686;2023-04-20T07:37:16;99017.09;;;17.78;82.65
7668;BME280;3876;42.204;24.686;2023-04-20T07:39:42;99029.16;;;17.92;81.42
7668;BME280;3876;42.204;24.686;2023-04-20T07:42:11;99026.28;;;18.22;80.45
7668;BME280;3876;42.204;24.686;2023-04-20T07:44:37;99024.41;;;18.24;83.47
7668;BME280;3876;42.204;24.686;2023-04-20T07:47:04;99033.13;;;18.48;81.62
7668;BME280;3876;42.204;24.686;2023-04-20T07:49:35;99038.59;;;18.58;79.25
7668;BME280;3876;42.204;24.686;2023-04-20T07:52:01;99047.72;;;18.63;77.96
7668;BME280;3876;42.204;24.686;2023-04-20T07:54:28;99048.09;;;18.82;79.78
7668;BME280;3876;42.204;24.686;2023-04-20T07:56:56;99035.53;;;18.76;78.47
7668;BME280;3876;42.204;24.686;2023-04-20T07:59:24;99040.22;;;18.71;76.73
7668;BME280;3876;42.204;24.686;2023-04-20T08:01:51;99041.44;;;18.78;78.90
7668;BME280;3876;42.204;24.686;2023-04-20T08:04:20;99040.22;;;18.59;79.32
7668;BME280;3876;42.204;24.686;2023-04-20T08:06:47;99031.94;;;18.54;79.13
7668;BME280;3876;42.204;24.686;2023-04-20T08:09:15;99027.94;;;18.48;77.44
7668;BME280;3876;42.204;24.686;2023-04-20T08:11:42;99024.56;;;18.60;80.13
7668;BME280;3876;42.204;24.686;2023-04-20T08:14:10;99034.19;;;18.83;80.27
7668;BME280;3876;42.204;24.686;2023-04-20T08:16:38;99036.41;;;19.01;78.69
7668;BME280;3876;42.204;24.686;2023-04-20T08:19:05;99033.91;;;19.12;76.42
7668;BME280;3876;42.204;24.686;2023-04-20T08:21:34;99019.25;;;19.11;78.13
7668;BME280;3876;42.204;24.686;2023-04-20T08:24:01;99026.53;;;19.06;75.21
7668;BME280;3876;42.204;24.686;2023-04-20T08:26:31;99021.19;;;19.20;76.31
7668;BME280;3876;42.204;24.686;2023-04-20T08:28:58;99021.25;;;19.31;75.66
7668;BME280;3876;42.204;24.686;2023-04-20T08:31:25;99026.53;;;19.42;77.57
7668;BME280;3876;42.204;24.686;2023-04-20T08:33:53;99012.66;;;19.54;73.38
7668;BME280;3876;42.204;24.686;2023-04-20T08:36:20;99011.69;;;19.55;73.27
7668;BME280;3876;42.204;24.686;2023-04-20T08:38:53;99010.22;;;19.64;74.88
7668;BME280;3876;42.204;24.686;2023-04-20T08:41:20;99010.16;;;19.76;75.86
7668;BME280;3876;42.204;24.686;2023-04-20T08:43:47;99006.84;;;19.85;76.70
7668;BME280;3876;42.204;24.686;2023-04-20T08:46:16;99004.50;;;19.93;76.82
7668;BME280;3876;42.204;24.686;2023-04-20T08:48:44;99001.13;;;20.15;76.32
7668;BME280;3876;42.204;24.686;2023-04-20T08:51:14;99007.19;;;20.16;75.14
7668;BME280;3876;42.204;24.686;2023-04-20T08:53:41;99003.66;;;20.28;75.40
7668;BME280;3876;42.204;24.686;2023-04-20T08:56:07;99007.22;;;20.38;75.12
7668;BME280;3876;42.204;24.686;2023-04-20T08:58:34;99012.91;;;20.32;70.42
7668;BME280;3876;42.204;24.686;2023-04-20T09:01:03;99010.66;;;19.92;71.38
7668;BME280;3876;42.204;24.686;2023-04-20T09:03:31;98995.56;;;20.09;74.68
7668;BME280;3876;42.204;24.686;2023-04-20T09:05:58;98978.19;;;20.09;70.96
7668;BME280;3876;42.204;24.686;2023-04-20T09:08:33;98989.19;;;20.13;70.43
7668;BME280;3876;42.204;24.686;2023-04-20T09:11:00;99007.56;;;20.33;70.65
7668;BME280;3876;42.204;24.686;2023-04-20T09:13:27;98996.69;;;20.51;74.01
7668;BME280;3876;42.204;24.686;2023-04-20T09:15:54;98994.91;;;20.62;72.13
7668;BME280;3876;42.204;24.686;2023-04-20T09:18:21;98998.91;;;21.00;76.17
7668;BME280;3876;42.204;24.686;2023-04-20T09:20:49;99009.81;;;20.71;69.88
7668;BME280;3876;42.204;24.686;2023-04-20T09:23:17;98981.66;;;20.54;67.80
7668;BME280;3876;42.204;24.686;2023-04-20T09:25:49;99007.81;;;20.86;69.17
7668;BME280;3876;42.204;24.686;2023-04-20T09:28:17;99000.44;;;20.91;67.10
7668;BME280;3876;42.204;24.686;2023-04-20T09:30:46;98999.75;;;21.00;65.73
7668;BME280;3876;42.204;24.686;2023-04-20T09:33:13;98997.75;;;20.92;66.95
7668;BME280;3876;42.204;24.686;2023-04-20T09:35:41;98980.56;;;20.79;66.60
7668;BME280;3876;42.204;24.686;2023-04-20T09:38:09;98991.34;;;20.74;68.17
7668;BME280;3876;42.204;24.686;2023-04-20T09:40:36;98991.59;;;20.82;68.27
7668;BME280;3876;42.204;24.686;2023-04-20T09:43:08;98993.94;;;20.97;68.91
7668;BME280;3876;42.204;24.686;2023-04-20T09:45:57;98993.22;;;21.06;65.77
7668;BME280;3876;42.204;24.686;2023-04-20T09:48:24;98992.63;;;21.13;65.40
7668;BME280;3876;42.204;24.686;2023-04-20T09:50:51;98995.56;;;21.09;65.29
7668;BME280;3876;42.204;24.686;2023-04-20T09:53:19;98989.88;;;21.26;67.48
7668;BME280;3876;42.204;24.686;2023-04-20T09:55:46;98986.69;;;21.54;69.94
7668;BME280;3876;42.204;24.686;2023-04-20T09:58:16;98979.44;;;21.78;67.50
7668;BME280;3876;42.204;24.686;2023-04-20T10:00:43;98994.34;;;21.87;62.62
7668;BME280;3876;42.204;24.686;2023-04-20T10:03:10;98973.00;;;21.93;64.23
7668;BME280;3876;42.204;24.686;2023-04-20T10:05:37;98973.69;;;21.95;65.93
7668;BME280;3876;42.204;24.686;2023-04-20T10:08:05;98964.47;;;21.91;62.74
7668;BME280;3876;42.204;24.686;2023-04-20T10:10:42;98962.84;;;21.79;63.51
7668;BME280;3876;42.204;24.686;2023-04-20T10:13:09;98965.75;;;21.65;61.34
7668;BME280;3876;42.204;24.686;2023-04-20T10:15:39;98962.84;;;21.27;62.63
7668;BME280;3876;42.204;24.686;2023-04-20T10:18:16;98970.69;;;21.05;62.35
7668;BME280;3876;42.204;24.686;2023-04-20T10:20:43;98956.28;;;20.89;64.22
7668;BME280;3876;42.204;24.686;2023-04-20T10:23:10;98959.97;;;20.65;63.82
7668;BME280;3876;42.204;24.686;2023-04-20T10:25:39;98958.34;;;20.53;64.40
7668;BME280;3876;42.204;24.686;2023-04-20T10:28:06;98955.41;;;20.35;64.68
7668;BME280;3876;42.204;24.686;2023-04-20T10:30:35;98953.63;;;20.35;67.40
7668;BME280;3876;42.204;24.686;2023-04-20T10:33:05;98956.03;;;20.26;66.20
7668;BME280;3876;42.204;24.686;2023-04-20T10:35:46;98951.81;;;20.25;65.88
7668;BME280;3876;42.204;24.686;2023-04-20T10:38:14;98962.44;;;20.11;65.52
7668;BME280;3876;42.204;24.686;2023-04-20T10:40:41;98965.63;;;20.03;65.03
7668;BME280;3876;42.204;24.686;2023-04-20T10:43:18;98960.63;;;19.89;70.63
7668;BME280;3876;42.204;24.686;2023-04-20T10:45:46;98962.91;;;19.59;70.38
7668;BME280;3876;42.204;24.686;2023-04-20T10:48:14;98964.22;;;19.17;73.13
7668;BME280;3876;42.204;24.686;2023-04-20T10:50:41;98967.22;;;19.00;71.91
7668;BME280;3876;42.204;24.686;2023-04-20T10:53:18;98957.41;;;19.16;72.21
7668;BME280;3876;42.204;24.686;2023-04-20T10:55:45;98953.69;;;19.31;75.10
7668;BME280;3876;42.204;24.686;2023-04-20T10:58:22;98936.94;;;19.35;79.57
7668;BME280;3876;42.204;24.686;2023-04-20T11:00:59;98950.44;;;19.40;79.52
7668;BME280;3876;42.204;24.686;2023-04-20T11:03:29;98946.69;;;19.44;79.60
7668;BME280;3876;42.204;24.686;2023-04-20T11:05:56;98953.22;;;19.37;81.26
7668;BME280;3876;42.204;24.686;2023-04-20T11:08:35;98947.09;;;19.38;80.83
7668;BME280;3876;42.204;24.686;2023-04-20T11:11:03;98937.34;;;19.42;80.95
7668;BME280;3876;42.204;24.686;2023-04-20T11:13:30;98943.75;;;19.36;79.27
7668;BME280;3876;42.204;24.686;2023-04-20T11:15:57;98947.03;;;19.27;75.77
7668;BME280;3876;42.204;24.686;2023-04-20T11:18:24;98938.25;;;19.17;77.34
7668;BME280;3876;42.204;24.686;2023-04-20T11:20:53;98933.00;;;19.06;75.39
7668;BME280;3876;42.204;24.686;2023-04-20T11:23:21;98937.09;;;18.97;74.78
7668;BME280;3876;42.204;24.686;2023-04-20T11:25:50;98934.09;;;18.91;74.24
7668;BME280;3876;42.204;24.686;2023-04-20T11:28:17;98933.69;;;18.84;74.04
7668;BME280;3876;42.204;24.686;2023-04-20T11:30:44;98935.28;;;18.86;74.04
7668;BME280;3876;42.204;24.686;2023-04-20T11:33:11;98924.66;;;18.90;77.50
7668;BME280;3876;42.204;24.686;2023-04-20T11:39:07;98923.09;;;19.11;74.93
7668;BME280;3876;42.204;24.686;2023-04-20T11:41:37;98910.72;;;19.38;74.29
7668;BME280;3876;42.204;24.686;2023-04-20T11:44:04;98909.41;;;19.67;72.64
7668;BME280;3876;42.204;24.686;2023-04-20T11:46:34;98918.66;;;19.93;66.34
7668;BME280;3876;42.204;24.686;2023-04-20T11:49:02;98916.41;;;19.89;66.66
7668;BME280;3876;42.204;24.686;2023-04-20T11:51:29;98911.78;;;19.81;65.93
7668;BME280;3876;42.204;24.686;2023-04-20T11:53:56;98903.22;;;19.68;66.28
7668;BME280;3876;42.204;24.686;2023-04-20T11:56:32;98899.44;;;19.50;66.90
7668;BME280;3876;42.204;24.686;2023-04-20T11:58:59;98895.19;;;19.60;68.48
7668;BME280;3876;42.204;24.686;2023-04-20T12:01:26;98888.72;;;19.88;69.70
7668;BME280;3876;42.204;24.686;2023-04-20T12:03:52;98884.13;;;20.14;66.22
7668;BME280;3876;42.204;24.686;2023-04-20T12:06:20;98889.25;;;20.26;65.81
7668;BME280;3876;42.204;24.686;2023-04-20T12:08:47;98885.06;;;20.46;65.48
7668;BME280;3876;42.204;24.686;2023-04-20T12:11:13;98880.09;;;20.54;62.35
7668;BME280;3876;42.204;24.686;2023-04-20T12:13:42;98874.63;;;20.68;65.21
7668;BME280;3876;42.204;24.686;2023-04-20T12:16:09;98875.28;;;20.81;65.59
7668;BME280;3876;42.204;24.686;2023-04-20T12:18:36;98877.53;;;20.86;65.75
7668;BME280;3876;42.204;24.686;2023-04-20T12:21:03;98879.53;;;20.93;64.01
7668;BME280;3876;42.204;24.686;2023-04-20T12:23:30;98872.41;;;20.95;66.70
7668;BME280;3876;42.204;24.686;2023-04-20T12:25:57;98877.88;;;20.92;68.69
7668;BME280;3876;42.204;24.686;2023-04-20T12:28:24;98877.97;;;20.91;64.02
7668;BME280;3876;42.204;24.686;2023-04-20T12:30:52;98872.41;;;20.95;67.60
7668;BME280;3876;42.204;24.686;2023-04-20T12:33:19;98873.81;;;21.00;63.86
7668;BME280;3876;42.204;24.686;2023-04-20T12:35:46;98873.69;;;21.01;63.75
7668;BME280;3876;42.204;24.686;2023-04-20T12:38:12;98867.84;;;21.09;66.48
7668;BME280;3876;42.204;24.686;2023-04-20T12:40:39;98867.28;;;21.16;64.58
7668;BME280;3876;42.204;24.686;2023-04-20T12:43:06;98861.09;;;21.17;59.06
7668;BME280;3876;42.204;24.686;2023-04-20T12:45:33;98861.41;;;21.24;60.09
7668;BME280;3876;42.204;24.686;2023-04-20T12:48:01;98860.66;;;21.33;60.61
7668;BME280;3876;42.204;24.686;2023-04-20T12:50:28;98867.47;;;21.24;60.26
7668;BME280;3876;42.204;24.686;2023-04-20T12:52:54;98865.97;;;21.11;59.13
7668;BME280;3876;42.204;24.686;2023-04-20T12:55:23;98869.75;;;21.07;60.12
7668;BME280;3876;42.204;24.686;2023-04-20T12:57:50;98862.91;;;21.06;59.81
7668;BME280;3876;42.204;24.686;2023-04-20T13:00:17;98870.00;;;21.04;58.15
7668;BME280;3876;42.204;24.686;2023-04-20T13:02:44;98861.22;;;21.05;59.23
7668;BME280;3876;42.204;24.686;2023-04-20T13:05:12;98862.69;;;20.98;58.26
7668;BME280;3876;42.204;24.686;2023-04-20T13:07:39;98866.28;;;20.85;60.79
7668;BME280;3876;42.204;24.686;2023-04-20T13:10:06;98856.13;;;20.71;63.72